createdAt,value
2018-07-31T00:00:44.845Z,92.80
2018-07-31T00:03:13.940Z,93.36
2018-07-31T00:05:43.013Z,93.17
2018-07-31T00:08:11.963Z,93.15
2018-07-31T00:10:41.011Z,93.53
2018-07-31T00:13:10.107Z,92.55
2018-07-31T00:15:39.194Z,92.79
2018-07-31T00:18:08.531Z,92.60
2018-07-31T00:20:37.791Z,92.15
2018-07-31T00:23:07.107Z,92.69
2018-07-31T00:25:36.809Z,93.66
2018-07-31T00:28:05.890Z,94.07
2018-07-31T00:30:34.904Z,94.45
2018-07-31T00:33:04.039Z,94.19
2018-07-31T00:35:33.186Z,93.04
2018-07-31T00:38:02.390Z,92.67
2018-07-31T00:40:31.903Z,92.55
2018-07-31T00:43:01.004Z,91.96
2018-07-31T00:45:30.096Z,92.33
2018-07-31T00:47:59.199Z,92.49
2018-07-31T00:50:28.266Z,91.41
2018-07-31T00:52:57.249Z,91.56
2018-07-31T00:55:26.288Z,91.29
2018-07-31T00:57:55.265Z,90.53
2018-07-31T01:00:24.369Z,89.82
2018-07-31T01:02:53.418Z,90.02
2018-07-31T01:05:22.439Z,89.33
2018-07-31T01:07:51.538Z,88.04
2018-07-31T01:10:20.815Z,87.32
2018-07-31T01:12:49.614Z,87.51
2018-07-31T01:15:18.695Z,87.47
2018-07-31T01:17:47.651Z,87.80
2018-07-31T01:20:16.755Z,87.15
2018-07-31T01:22:45.710Z,87.30
2018-07-31T01:25:14.952Z,87.92
2018-07-31T01:27:44.320Z,88.14
2018-07-31T01:30:13.279Z,87.71
2018-07-31T01:32:42.358Z,87.50
2018-07-31T01:35:11.489Z,87.51
2018-07-31T01:37:40.598Z,88.01
2018-07-31T01:40:09.975Z,88.15
2018-07-31T01:42:39.832Z,87.83
2018-07-31T01:45:08.829Z,87.50
2018-07-31T01:47:37.967Z,87.95
2018-07-31T01:50:07.008Z,87.45
2018-07-31T01:52:36.091Z,87.61
2018-07-31T01:55:05.230Z,87.85
2018-07-31T01:57:34.222Z,87.59
2018-07-31T02:00:03.243Z,86.90
2018-07-31T02:02:32.817Z,87.49
2018-07-31T02:05:01.920Z,87.54
2018-07-31T02:07:31.012Z,87.73
2018-07-31T02:10:00.371Z,88.15
2018-07-31T02:12:29.191Z,88.41
2018-07-31T02:14:58.183Z,88.53
2018-07-31T02:17:27.256Z,88.97
2018-07-31T02:19:56.280Z,88.36
2018-07-31T02:22:25.254Z,89.09
2018-07-31T02:24:54.359Z,89.15
2018-07-31T02:27:23.374Z,88.89
2018-07-31T02:29:57.216Z,87.84
2018-07-31T02:32:26.271Z,87.67
2018-07-31T02:34:55.376Z,88.16
2018-07-31T02:37:24.889Z,87.57
2018-07-31T02:39:53.967Z,87.73
2018-07-31T02:42:23.046Z,88.35
2018-07-31T02:44:52.295Z,89.74
2018-07-31T02:47:21.372Z,90.28
2018-07-31T02:49:50.465Z,90.14
2018-07-31T02:52:19.497Z,90.53
2018-07-31T02:54:48.664Z,91.34
2018-07-31T02:57:18.135Z,92.46
2018-07-31T02:59:47.064Z,93.96
2018-07-31T03:02:16.357Z,93.77
2018-07-31T03:04:46.424Z,94.23
2018-07-31T03:07:15.403Z,93.68
2018-07-31T03:09:44.370Z,93.56
2018-07-31T03:12:13.471Z,93.74
2018-07-31T03:14:42.900Z,93.12
2018-07-31T03:17:11.859Z,92.96
2018-07-31T03:19:40.968Z,93.24
2018-07-31T03:22:10.088Z,93.25
2018-07-31T03:24:39.231Z,93.30
2018-07-31T03:27:08.328Z,94.48
2018-07-31T03:29:37.758Z,95.34
2018-07-31T03:32:06.892Z,95.06
2018-07-31T03:34:35.879Z,95.13
2018-07-31T03:37:05.182Z,95.18
2018-07-31T03:39:34.323Z,94.43
2018-07-31T03:42:03.243Z,94.93
2018-07-31T03:44:32.163Z,95.45
2018-07-31T03:47:01.233Z,94.80
2018-07-31T03:49:30.380Z,93.62
2018-07-31T03:51:59.519Z,93.19
2018-07-31T03:54:28.702Z,94.25
2018-07-31T03:56:57.603Z,93.21
2018-07-31T03:59:26.603Z,92.80
2018-07-31T04:01:55.859Z,91.63
2018-07-31T04:04:25.059Z,90.86
2018-07-31T04:06:54.399Z,90.53
2018-07-31T04:09:23.531Z,90.38
2018-07-31T04:11:52.674Z,89.80
2018-07-31T04:14:22.282Z,89.61
2018-07-31T04:16:51.631Z,89.25
2018-07-31T04:19:20.682Z,89.06
2018-07-31T04:21:49.739Z,88.61
2018-07-31T04:24:18.834Z,88.42
2018-07-31T04:26:47.846Z,87.15
2018-07-31T04:29:17.076Z,86.83
2018-07-31T04:31:46.151Z,86.82
2018-07-31T04:34:15.218Z,87.03
2018-07-31T04:36:44.479Z,87.08
2018-07-31T04:39:14.501Z,86.97
2018-07-31T04:41:44.115Z,86.74
2018-07-31T04:44:13.371Z,85.90
2018-07-31T04:46:42.511Z,85.98
2018-07-31T04:49:11.646Z,84.92
2018-07-31T04:51:43.016Z,85.21
2018-07-31T04:54:12.895Z,84.71
2018-07-31T04:56:41.846Z,84.81
2018-07-31T04:59:11.515Z,82.97
2018-07-31T05:01:40.787Z,82.75
2018-07-31T05:04:09.805Z,82.73
2018-07-31T05:06:40.497Z,83.46
2018-07-31T05:09:12.133Z,83.37
2018-07-31T05:11:41.623Z,84.00
2018-07-31T05:14:12.700Z,84.37
2018-07-31T05:16:45.362Z,84.64
2018-07-31T05:19:15.575Z,84.54
2018-07-31T05:21:47.607Z,84.02
2018-07-31T05:24:16.650Z,84.83
2018-07-31T05:26:45.738Z,86.16
2018-07-31T05:29:14.766Z,87.33
2018-07-31T05:31:43.823Z,86.62
2018-07-31T05:34:13.023Z,86.21
2018-07-31T05:36:42.043Z,86.68
2018-07-31T05:39:12.244Z,86.31
2018-07-31T05:41:41.406Z,87.69
2018-07-31T05:44:10.959Z,88.88
2018-07-31T05:46:40.152Z,88.42
2018-07-31T05:49:09.911Z,88.74
2018-07-31T05:51:43.212Z,88.40
2018-07-31T05:54:12.220Z,87.51
2018-07-31T05:56:41.467Z,85.64
2018-07-31T05:59:10.455Z,84.89
2018-07-31T06:01:39.935Z,83.09
2018-07-31T06:04:08.945Z,82.50
2018-07-31T06:06:37.924Z,81.59
2018-07-31T06:09:09.364Z,81.22
2018-07-31T06:11:38.999Z,81.15
2018-07-31T06:14:08.859Z,79.99
2018-07-31T06:16:38.118Z,79.46
2018-07-31T06:19:07.212Z,79.83
2018-07-31T06:21:36.534Z,79.22
2018-07-31T06:24:05.877Z,78.76
2018-07-31T06:26:34.883Z,75.80
2018-07-31T06:29:03.882Z,74.73
2018-07-31T06:31:33.330Z,73.94
2018-07-31T06:34:02.334Z,72.15
2018-07-31T06:36:31.500Z,70.25
2018-07-31T06:39:00.815Z,68.62
2018-07-31T06:41:29.755Z,66.70
2018-07-31T06:43:58.808Z,68.26
2018-07-31T06:46:28.432Z,66.54
2018-07-31T06:48:57.609Z,66.32
2018-07-31T06:51:26.622Z,65.39
2018-07-31T06:53:55.631Z,64.81
2018-07-31T06:56:24.900Z,64.15
2018-07-31T06:58:54.082Z,63.11
2018-07-31T07:01:23.838Z,61.62
2018-07-31T07:03:53.090Z,60.74
2018-07-31T07:06:22.323Z,59.01
2018-07-31T07:08:51.318Z,58.16
2018-07-31T07:11:20.617Z,54.69
2018-07-31T07:13:49.809Z,53.51
2018-07-31T07:16:19.622Z,51.83
2018-07-31T07:18:48.640Z,53.05
2018-07-31T07:21:17.953Z,51.87
2018-07-31T07:23:47.656Z,53.03
2018-07-31T07:26:17.448Z,52.28
2018-07-31T07:28:46.774Z,52.14
2018-07-31T07:31:15.739Z,52.33
2018-07-31T07:33:45.709Z,50.42
2018-07-31T07:36:15.354Z,51.23
2018-07-31T07:38:44.680Z,51.93
2018-07-31T07:41:13.638Z,51.63
2018-07-31T07:43:42.754Z,50.85
2018-07-31T07:46:11.902Z,49.53
2018-07-31T07:48:42.597Z,50.75
2018-07-31T07:51:11.327Z,52.20
2018-07-31T07:53:40.394Z,51.24
2018-07-31T07:56:09.470Z,50.67
2018-07-31T07:58:38.578Z,51.57
2018-07-31T08:01:07.790Z,52.87
2018-07-31T08:03:36.786Z,53.24
2018-07-31T08:06:05.775Z,53.81
2018-07-31T08:08:35.001Z,53.10
2018-07-31T08:11:04.152Z,50.41
2018-07-31T08:13:33.206Z,48.23
2018-07-31T08:16:02.655Z,47.11
2018-07-31T08:18:31.627Z,44.87
2018-07-31T08:21:00.736Z,44.63
2018-07-31T08:23:30.035Z,48.59
2018-07-31T08:25:59.108Z,47.15
2018-07-31T08:28:28.123Z,47.83
2018-07-31T08:30:57.577Z,48.40
2018-07-31T08:33:26.711Z,48.71
2018-07-31T08:35:55.814Z,48.54
2018-07-31T08:38:25.027Z,48.32
2018-07-31T08:40:54.084Z,50.07
2018-07-31T08:43:23.474Z,48.81
2018-07-31T08:45:52.595Z,47.68
2018-07-31T08:48:21.693Z,48.95
2018-07-31T08:50:51.100Z,48.41
2018-07-31T08:53:19.921Z,46.57
2018-07-31T08:55:49.716Z,46.30
2018-07-31T08:58:18.863Z,45.58
2018-07-31T09:00:47.930Z,46.58
2018-07-31T09:03:16.908Z,46.55
2018-07-31T09:05:47.043Z,47.29
2018-07-31T09:08:16.498Z,47.85
2018-07-31T09:10:45.456Z,47.93
2018-07-31T09:13:14.667Z,48.87
2018-07-31T09:15:43.620Z,47.98
2018-07-31T09:18:12.708Z,48.90
2018-07-31T09:20:41.935Z,49.74
2018-07-31T09:23:10.982Z,50.01
2018-07-31T09:25:46.828Z,52.12
2018-07-31T09:28:17.387Z,53.00
2018-07-31T09:30:51.716Z,53.89
2018-07-31T09:33:20.973Z,56.05
2018-07-31T09:35:50.188Z,56.42
2018-07-31T09:38:19.109Z,55.63
2018-07-31T09:40:48.015Z,55.14
2018-07-31T09:43:17.307Z,56.77
2018-07-31T09:45:46.500Z,54.20
2018-07-31T09:48:15.660Z,53.87
2018-07-31T09:50:44.792Z,53.79
2018-07-31T09:53:13.806Z,51.75
2018-07-31T09:55:43.096Z,52.11
2018-07-31T09:58:12.235Z,50.67
2018-07-31T10:00:46.308Z,51.56
2018-07-31T10:03:15.446Z,52.75
2018-07-31T10:05:44.544Z,52.14
2018-07-31T10:08:17.603Z,51.13
2018-07-31T10:10:46.672Z,52.97
2018-07-31T10:13:15.695Z,53.61
2018-07-31T10:15:45.098Z,52.41
2018-07-31T10:18:14.311Z,51.10
2018-07-31T10:20:43.946Z,50.73
2018-07-31T10:23:13.206Z,51.70
2018-07-31T10:25:42.322Z,50.44
2018-07-31T10:28:11.182Z,51.22
2018-07-31T10:30:40.827Z,50.20
2018-07-31T10:33:09.888Z,48.90
2018-07-31T10:35:38.895Z,48.69
2018-07-31T10:38:07.979Z,49.83
2018-07-31T10:40:37.179Z,50.62
2018-07-31T10:43:06.384Z,49.71
2018-07-31T10:45:35.606Z,49.00
2018-07-31T10:48:04.777Z,48.39
2018-07-31T10:50:33.768Z,49.73
2018-07-31T10:53:02.876Z,52.21
2018-07-31T10:55:31.973Z,52.92
2018-07-31T10:58:00.980Z,53.40
2018-07-31T11:00:30.097Z,52.38
2018-07-31T11:02:59.465Z,54.07
2018-07-31T11:05:28.661Z,55.61
2018-07-31T11:07:57.730Z,55.23
2018-07-31T11:10:26.800Z,55.01
2018-07-31T11:12:55.954Z,53.75
2018-07-31T11:15:25.171Z,51.47
2018-07-31T11:17:54.304Z,52.10
2018-07-31T11:20:23.427Z,51.79
2018-07-31T11:22:52.887Z,51.14
2018-07-31T11:25:22.830Z,49.72
2018-07-31T11:27:51.862Z,49.89
2018-07-31T11:30:20.981Z,50.57
2018-07-31T11:32:50.021Z,49.97
2018-07-31T11:35:19.740Z,48.86
2018-07-31T11:37:49.138Z,48.56
2018-07-31T11:40:18.740Z,48.15
2018-07-31T11:42:48.043Z,48.79
2018-07-31T11:45:17.128Z,49.63
2018-07-31T11:47:46.251Z,50.41
2018-07-31T11:50:15.532Z,49.40
2018-07-31T11:52:44.636Z,49.59
2018-07-31T11:55:13.775Z,49.99
2018-07-31T11:57:42.887Z,49.19
2018-07-31T12:00:13.463Z,50.06
2018-07-31T12:02:42.744Z,50.96
2018-07-31T12:05:11.822Z,50.91
2018-07-31T12:07:41.246Z,51.53
2018-07-31T12:10:10.130Z,52.23
2018-07-31T12:12:39.438Z,51.27
2018-07-31T12:15:08.560Z,50.42
2018-07-31T12:17:37.601Z,48.83
2018-07-31T12:20:06.952Z,47.85
2018-07-31T12:22:36.123Z,48.72
2018-07-31T12:25:05.088Z,48.21
2018-07-31T12:27:34.300Z,48.61
2018-07-31T12:30:03.711Z,49.60
2018-07-31T12:32:32.877Z,50.86
2018-07-31T12:35:01.796Z,51.01
2018-07-31T12:37:31.242Z,50.57
2018-07-31T12:40:00.380Z,51.23
2018-07-31T12:42:29.481Z,52.30
2018-07-31T12:44:58.860Z,53.21
2018-07-31T12:47:27.734Z,54.20
2018-07-31T12:49:57.348Z,54.93
2018-07-31T12:52:27.118Z,54.94
2018-07-31T12:54:56.333Z,57.01
2018-07-31T12:57:25.610Z,57.32
2018-07-31T12:59:54.789Z,58.43
2018-07-31T13:02:24.215Z,58.70
2018-07-31T13:04:53.056Z,59.31
2018-07-31T13:07:22.636Z,59.33
2018-07-31T13:09:51.819Z,59.01
2018-07-31T13:12:20.894Z,58.02
2018-07-31T13:14:50.536Z,58.34
2018-07-31T13:17:19.823Z,62.70
2018-07-31T13:19:49.115Z,65.12
2018-07-31T13:22:21.038Z,64.98
2018-07-31T13:24:50.401Z,64.58
2018-07-31T13:27:19.801Z,66.10
2018-07-31T13:29:49.205Z,65.87
2018-07-31T13:32:18.293Z,65.88
2018-07-31T13:34:47.599Z,65.99
2018-07-31T13:37:17.207Z,66.30
2018-07-31T13:39:46.313Z,66.20
2018-07-31T13:42:15.794Z,66.91
2018-07-31T13:44:45.147Z,66.23
2018-07-31T13:47:14.081Z,67.26
2018-07-31T13:49:43.719Z,65.87
2018-07-31T13:52:13.016Z,66.30
2018-07-31T13:54:42.316Z,66.27
2018-07-31T13:57:11.613Z,67.01
2018-07-31T13:59:41.135Z,66.13
2018-07-31T14:02:10.328Z,65.06
2018-07-31T14:04:39.323Z,64.43
2018-07-31T14:07:08.592Z,63.91
2018-07-31T14:09:37.604Z,62.38
2018-07-31T14:12:06.711Z,62.16
2018-07-31T14:14:36.125Z,61.43
2018-07-31T14:17:05.016Z,62.59
2018-07-31T14:19:34.113Z,62.70
2018-07-31T14:22:03.913Z,62.42
2018-07-31T14:24:33.121Z,62.72
2018-07-31T14:27:02.200Z,60.16
2018-07-31T14:29:31.742Z,60.75
2018-07-31T14:32:00.852Z,62.72
2018-07-31T14:34:29.922Z,64.92
2018-07-31T14:36:59.442Z,64.49
2018-07-31T14:39:28.379Z,66.67
2018-07-31T14:41:57.610Z,67.19
2018-07-31T14:44:26.948Z,69.03
2018-07-31T14:46:56.322Z,69.96
2018-07-31T14:49:25.426Z,69.77
2018-07-31T14:51:55.354Z,72.00
2018-07-31T14:54:24.518Z,73.23
2018-07-31T14:56:53.503Z,72.62
2018-07-31T14:59:22.726Z,73.33
2018-07-31T15:01:51.662Z,75.33
2018-07-31T15:04:20.716Z,73.30
2018-07-31T15:06:49.951Z,76.09
2018-07-31T15:09:19.308Z,75.85
2018-07-31T15:11:48.511Z,74.88
2018-07-31T15:14:17.847Z,77.20
2018-07-31T15:16:47.717Z,76.43
2018-07-31T15:19:16.847Z,76.19
2018-07-31T15:21:46.864Z,75.88
2018-07-31T15:24:15.941Z,77.10
2018-07-31T15:26:45.227Z,74.93
2018-07-31T15:29:15.278Z,77.03
2018-07-31T15:31:44.279Z,72.97
2018-07-31T15:34:13.478Z,70.82
2018-07-31T15:36:42.759Z,73.40
2018-07-31T15:39:13.334Z,71.11
2018-07-31T15:41:42.686Z,70.48
2018-07-31T15:44:12.269Z,71.24
2018-07-31T15:46:41.407Z,70.06
2018-07-31T15:49:10.502Z,67.10
2018-07-31T15:51:39.919Z,63.16
2018-07-31T15:54:09.078Z,61.92
2018-07-31T15:56:38.914Z,62.37
2018-07-31T15:59:08.145Z,65.12
2018-07-31T16:01:37.416Z,63.67
2018-07-31T16:04:06.707Z,63.50
2018-07-31T16:06:35.890Z,64.58
2018-07-31T16:09:06.577Z,64.77
2018-07-31T16:11:35.764Z,65.11
2018-07-31T16:14:05.272Z,66.63
2018-07-31T16:16:34.352Z,66.62
2018-07-31T16:19:03.454Z,67.06
2018-07-31T16:21:32.876Z,68.91
2018-07-31T16:24:02.056Z,68.88
2018-07-31T16:26:30.963Z,70.12
2018-07-31T16:29:00.389Z,69.14
2018-07-31T16:31:29.527Z,69.59
2018-07-31T16:33:59.356Z,68.89
2018-07-31T16:36:28.400Z,67.46
2018-07-31T16:38:57.331Z,67.91
2018-07-31T16:41:26.375Z,68.35
2018-07-31T16:43:55.463Z,69.14
2018-07-31T16:46:24.628Z,69.85
2018-07-31T16:48:53.858Z,70.31
2018-07-31T16:51:23.043Z,70.10
2018-07-31T16:53:52.028Z,69.35
2018-07-31T16:56:21.122Z,70.88
2018-07-31T16:58:50.577Z,73.05
2018-07-31T17:01:19.724Z,71.83
2018-07-31T17:03:48.825Z,72.67
2018-07-31T17:06:17.970Z,72.88
2018-07-31T17:08:47.126Z,74.21
2018-07-31T17:11:16.128Z,73.49
2018-07-31T17:13:45.659Z,73.06
2018-07-31T17:16:14.735Z,72.62
2018-07-31T17:18:43.859Z,72.27
2018-07-31T17:21:13.554Z,71.51
2018-07-31T17:23:42.535Z,72.29
2018-07-31T17:26:11.732Z,72.54
2018-07-31T17:28:41.057Z,73.97
2018-07-31T17:31:10.342Z,74.29
2018-07-31T17:33:39.638Z,75.25
2018-07-31T17:36:08.523Z,76.05
2018-07-31T17:38:37.799Z,76.54
2018-07-31T17:41:06.892Z,76.69
2018-07-31T17:43:36.156Z,77.36
2018-07-31T17:46:05.426Z,78.40
2018-07-31T17:48:34.977Z,78.89
2018-07-31T17:51:04.198Z,79.69
2018-07-31T17:53:33.387Z,80.74
2018-07-31T17:56:03.177Z,79.39
2018-07-31T17:58:32.355Z,79.78
2018-07-31T18:01:01.516Z,79.93
2018-07-31T18:03:30.532Z,80.53
2018-07-31T18:05:59.514Z,80.87
2018-07-31T18:08:28.703Z,80.60
2018-07-31T18:10:57.714Z,81.74
2018-07-31T18:13:26.613Z,82.04
2018-07-31T18:15:55.710Z,83.28
2018-07-31T18:18:24.754Z,84.14
2018-07-31T18:20:54.208Z,85.02
2018-07-31T18:23:23.411Z,85.63
2018-07-31T18:25:52.555Z,85.87
2018-07-31T18:28:21.711Z,86.12
2018-07-31T18:30:50.822Z,86.99
2018-07-31T18:33:19.994Z,87.22
2018-07-31T18:35:48.995Z,87.66
2018-07-31T18:38:18.213Z,88.61
2018-07-31T18:40:47.515Z,89.95
2018-07-31T18:43:16.401Z,90.28
2018-07-31T18:45:45.675Z,89.56
2018-07-31T18:48:15.188Z,88.38
2018-07-31T18:50:44.114Z,87.76
2018-07-31T18:53:13.195Z,87.62
2018-07-31T18:55:42.428Z,87.87
2018-07-31T18:58:11.583Z,88.67
2018-07-31T19:00:40.707Z,88.68
2018-07-31T19:03:09.731Z,88.92
2018-07-31T19:05:38.885Z,89.13
2018-07-31T19:08:08.159Z,88.83
2018-07-31T19:10:37.443Z,88.46
2018-07-31T19:13:06.563Z,88.63
2018-07-31T19:15:35.356Z,88.75
2018-07-31T19:18:04.191Z,89.00
2018-07-31T19:20:33.267Z,90.12
2018-07-31T19:23:02.293Z,90.57
2018-07-31T19:25:31.690Z,90.84
2018-07-31T19:28:00.774Z,91.63
2018-07-31T19:30:29.914Z,91.87
2018-07-31T19:32:58.967Z,91.92
2018-07-31T19:35:27.958Z,92.78
2018-07-31T19:37:57.233Z,92.61
2018-07-31T19:40:26.504Z,92.38
2018-07-31T19:42:55.359Z,92.12
2018-07-31T19:45:24.309Z,91.90
2018-07-31T19:47:53.643Z,92.05
2018-07-31T19:50:23.452Z,92.09
2018-07-31T19:52:52.566Z,92.62
2018-07-31T19:55:21.653Z,92.52
2018-07-31T19:57:50.816Z,93.16
2018-07-31T20:00:20.015Z,93.19
2018-07-31T20:02:49.134Z,94.24
2018-07-31T20:05:18.231Z,94.25
2018-07-31T20:07:47.130Z,94.17
2018-07-31T20:10:16.417Z,94.13
2018-07-31T20:12:45.506Z,94.48
2018-07-31T20:15:14.566Z,94.04
2018-07-31T20:17:43.751Z,93.37
2018-07-31T20:20:12.782Z,93.16
2018-07-31T20:22:41.683Z,93.49
2018-07-31T20:25:10.917Z,93.75
2018-07-31T20:27:40.036Z,92.80
2018-07-31T20:30:09.013Z,93.41
2018-07-31T20:32:38.028Z,93.45
2018-07-31T20:35:06.974Z,93.74
2018-07-31T20:37:35.937Z,94.06
2018-07-31T20:40:05.274Z,94.44
2018-07-31T20:42:34.246Z,94.09
2018-07-31T20:45:03.300Z,95.57
2018-07-31T20:47:32.484Z,94.48
2018-07-31T20:50:01.619Z,93.80
2018-07-31T20:52:30.520Z,93.36
2018-07-31T20:54:59.604Z,93.53
2018-07-31T20:57:28.578Z,93.79
2018-07-31T20:59:57.520Z,93.17
2018-07-31T21:02:26.623Z,94.02
2018-07-31T21:04:55.684Z,95.56
2018-07-31T21:07:24.642Z,95.96
2018-07-31T21:09:53.670Z,95.58
2018-07-31T21:12:22.558Z,97.07
2018-07-31T21:14:51.451Z,97.21
2018-07-31T21:17:20.690Z,98.13
2018-07-31T21:19:49.638Z,98.79
2018-07-31T21:22:18.738Z,99.70
2018-07-31T21:24:47.866Z,99.12
2018-07-31T21:27:16.947Z,99.71
2018-07-31T21:29:45.921Z,100.00
2018-07-31T21:32:14.743Z,100.00
2018-07-31T21:34:43.783Z,100.00
2018-07-31T21:37:12.597Z,99.92
2018-07-31T21:39:41.671Z,99.83
2018-07-31T21:42:10.696Z,99.74
2018-07-31T21:44:39.542Z,99.76
2018-07-31T21:47:08.893Z,99.14
2018-07-31T21:49:37.858Z,100.00
2018-07-31T21:52:06.870Z,100.00
2018-07-31T21:54:36.017Z,100.00
2018-07-31T21:57:04.939Z,100.00
2018-07-31T21:59:34.052Z,99.40
2018-07-31T22:02:03.489Z,99.57
2018-07-31T22:04:32.448Z,98.99
2018-07-31T22:07:01.373Z,99.59
2018-07-31T22:09:37.667Z,100.00
2018-07-31T22:12:06.591Z,99.36
2018-07-31T22:14:35.673Z,99.83
2018-07-31T22:17:04.837Z,99.66
2018-07-31T22:19:33.882Z,99.79
2018-07-31T22:22:02.974Z,100.00
2018-07-31T22:24:31.864Z,100.00
2018-07-31T22:27:00.670Z,100.00
2018-07-31T22:29:29.662Z,100.00
2018-07-31T22:31:58.681Z,100.00
2018-07-31T22:34:27.535Z,100.00
2018-07-31T22:36:56.722Z,100.00
2018-07-31T22:39:25.972Z,100.00
2018-07-31T22:41:54.742Z,100.00
2018-07-31T22:44:23.819Z,99.75
2018-07-31T22:46:53.135Z,99.53
2018-07-31T22:49:22.298Z,99.63
2018-07-31T22:51:51.315Z,99.20
2018-07-31T22:54:20.523Z,98.31
2018-07-31T22:56:49.374Z,97.90
2018-07-31T22:59:18.280Z,98.42
2018-07-31T23:01:47.503Z,99.19
2018-07-31T23:04:16.770Z,98.96
2018-07-31T23:06:45.684Z,100.00
2018-07-31T23:09:14.691Z,100.00
2018-07-31T23:11:43.746Z,100.00
2018-07-31T23:14:12.656Z,100.00
2018-07-31T23:16:41.788Z,100.00
2018-07-31T23:19:10.833Z,100.00
2018-07-31T23:21:39.774Z,100.00
2018-07-31T23:24:08.649Z,100.00
2018-07-31T23:26:37.504Z,100.00
2018-07-31T23:29:06.318Z,100.00
2018-07-31T23:31:35.330Z,100.00
2018-07-31T23:34:04.490Z,100.00
2018-07-31T23:36:33.325Z,99.59
2018-07-31T23:39:02.628Z,99.42
2018-07-31T23:41:31.574Z,100.00
2018-07-31T23:44:00.371Z,100.00
2018-07-31T23:46:29.494Z,100.00
2018-07-31T23:48:58.458Z,100.00
2018-07-31T23:51:27.255Z,100.00
2018-07-31T23:53:56.136Z,100.00
2018-07-31T23:56:25.143Z,100.00
2018-07-31T23:58:54.489Z,100.00
